NCAR-RAP Real-Time Weather Data

Output produced by METARs form (12 May 2021  12:25 UTC)
found at http://weather.rap.ucar.edu/surface/
 
KVRB 121153Z 19005KT 10SM CLR 24/23 A3007 RMK AO2 SLP182 T02440233 10250 20200 52015
KVRB 121105Z 00000KT 10SM CLR 21/21 A3007 RMK AO2 T02060206
KVRB 121053Z AUTO 00000KT 1/4SM FG VV011 21/21 A3006 RMK AO2 SLP179 T02060206
KVRB 121016Z AUTO 00000KT 1/4SM FG VV011 21/21 A3005 RMK AO2 T02110211
KVRB 121012Z AUTO 00000KT 1SM BR VV012 21/21 A3005 RMK AO2 T02110211
KVRB 121005Z AUTO 00000KT 3SM BR CLR 21/21 A3004 RMK AO2 T02110206
KVRB 120956Z AUTO 00000KT 1 3/4SM BR CLR 22/21 A3004 RMK AO2 VIS 1/2V5 T02170211
KVRB 120953Z AUTO 00000KT 5SM BR CLR 21/21 A3004 RMK AO2 SLP170 T02110211
KVRB 120935Z AUTO 00000KT 4SM BR CLR 21/21 A3004 RMK AO2 T02110211
KVRB 120921Z AUTO 00000KT 1 3/4SM BR CLR 21/21 A3003 RMK AO2 T02110211
KVRB 120919Z AUTO 00000KT 3SM BR CLR 21/21 A3003 RMK AO2 T02110211
KVRB 120911Z AUTO 00000KT 1 3/4SM BR CLR 22/22 A3003 RMK AO2 VIS 1/2V5 T02170217
KVRB 120853Z AUTO 00000KT 8SM CLR 22/22 A3003 RMK AO2 SLP167 T02220222 56009
KVRB 120753Z AUTO 00000KT 10SM CLR 23/22 A3004 RMK AO2 SLP171 T02280222
KVRB 120653Z AUTO 26003KT 10SM FEW018 24/23 A3004 RMK AO2 SLP172 T02390228
KVRB 120553Z AUTO 19005KT 10SM CLR 25/23 A3006 RMK AO2 SLP176 T02500233 10267 20250 58006
KVRB 120453Z AUTO 16006KT 10SM CLR 26/23 A3007 RMK AO2 SLP181 T02610233 403170211
KVRB 120353Z AUTO 15007KT 10SM CLR 26/23 A3007 RMK AO2 SLP183 T02610233
KVRB 120253Z AUTO 13009KT 10SM CLR 26/23 A3007 RMK AO2 SLP182 T02610233 52009
KVRB 120153Z AUTO 12008KT 10SM CLR 26/23 A3006 RMK AO2 SLP179 T02610233
KVRB 120053Z 10006KT 10SM CLR 26/23 A3005 RMK AO2 SLP176 T02610228
KVRB 112353Z 11007KT 10SM CLR 27/22 A3004 RMK AO2 SLP173 T02670222 10311 20267 53004
KVRB 112253Z 10007KT 10SM CLR 28/22 A3003 RMK AO2 SLP167 T02780222
KVRB 112153Z 12010KT 10SM CLR 29/22 A3003 RMK AO2 SLP166 T02890217
KVRB 112053Z 13011G18KT 10SM SCT032 31/23 A3003 RMK AO2 SLP169 T03110228 56013